sensor_id;sensor_type;location;lat;lon;timestamp;pressure;altitude;pressure_sealevel;temperature;humidity
57847;BME280;43675;50.030;21.952;2023-04-25T00:00:29;97529.86;;;11.35;70.66
57847;BME280;43675;50.030;21.952;2023-04-25T00:03:15;97529.99;;;11.36;70.65
57847;BME280;43675;50.030;21.952;2023-04-25T00:05:42;97527.16;;;11.38;70.77
57847;BME280;43675;50.030;21.952;2023-04-25T00:08:08;97524.91;;;11.38;70.84
57847;BME280;43675;50.030;21.952;2023-04-25T00:10:35;97525.56;;;11.37;70.96
57847;BME280;43675;50.030;21.952;2023-04-25T00:13:01;97520.92;;;11.37;71.23
57847;BME280;43675;50.030;21.952;2023-04-25T00:15:28;97520.23;;;11.37;71.37
57847;BME280;43675;50.030;21.952;2023-04-25T00:17:55;97514.26;;;11.36;71.53
57847;BME280;43675;50.030;21.952;2023-04-25T00:20:21;97515.89;;;11.37;71.65
57847;BME280;43675;50.030;21.952;2023-04-25T00:22:48;97510.66;;;11.36;71.78
57847;BME280;43675;50.030;21.952;2023-04-25T00:25:15;97512.21;;;11.37;71.85
57847;BME280;43675;50.030;21.952;2023-04-25T00:27:41;97513.73;;;11.37;71.92
57847;BME280;43675;50.030;21.952;2023-04-25T00:30:08;97512.34;;;11.38;71.92
57847;BME280;43675;50.030;21.952;2023-04-25T00:32:35;97511.69;;;11.37;72.11
57847;BME280;43675;50.030;21.952;2023-04-25T00:35:02;97509.05;;;11.38;72.19
57847;BME280;43675;50.030;21.952;2023-04-25T00:37:28;97506.42;;;11.37;72.37
57847;BME280;43675;50.030;21.952;2023-04-25T00:39:55;97505.93;;;11.37;72.45
57847;BME280;43675;50.030;21.952;2023-04-25T00:42:21;97502.05;;;11.36;72.52
57847;BME280;43675;50.030;21.952;2023-04-25T00:44:48;97497.81;;;11.36;72.53
57847;BME280;43675;50.030;21.952;2023-04-25T00:47:15;97494.73;;;11.35;72.56
57847;BME280;43675;50.030;21.952;2023-04-25T00:49:42;97494.45;;;11.35;72.68
57847;BME280;43675;50.030;21.952;2023-04-25T00:52:09;97496.73;;;11.36;72.70
57847;BME280;43675;50.030;21.952;2023-04-25T00:54:36;97499.40;;;11.35;72.83
57847;BME280;43675;50.030;21.952;2023-04-25T00:57:03;97495.76;;;11.35;72.88
57847;BME280;43675;50.030;21.952;2023-04-25T00:59:30;97497.14;;;11.35;72.92
57847;BME280;43675;50.030;21.952;2023-04-25T01:01:56;97491.97;;;11.33;72.98
57847;BME280;43675;50.030;21.952;2023-04-25T01:04:24;97488.36;;;11.33;73.05
57847;BME280;43675;50.030;21.952;2023-04-25T01:06:51;97490.27;;;11.31;73.13
57847;BME280;43675;50.030;21.952;2023-04-25T01:09:18;97488.33;;;11.30;73.27
57847;BME280;43675;50.030;21.952;2023-04-25T01:11:45;97483.10;;;11.29;73.31
57847;BME280;43675;50.030;21.952;2023-04-25T01:14:12;97484.38;;;11.29;73.37
57847;BME280;43675;50.030;21.952;2023-04-25T01:16:38;97484.90;;;11.27;73.37
57847;BME280;43675;50.030;21.952;2023-04-25T01:19:09;97482.73;;;11.26;73.49
57847;BME280;43675;50.030;21.952;2023-04-25T01:21:35;97481.80;;;11.25;73.52
57847;BME280;43675;50.030;21.952;2023-04-25T01:24:02;97477.98;;;11.24;73.63
57847;BME280;43675;50.030;21.952;2023-04-25T01:26:30;97478.02;;;11.23;73.78
57847;BME280;43675;50.030;21.952;2023-04-25T01:28:57;97472.89;;;11.24;73.87
57847;BME280;43675;50.030;21.952;2023-04-25T01:31:24;97475.42;;;11.25;73.91
57847;BME280;43675;50.030;21.952;2023-04-25T01:33:51;97473.23;;;11.26;73.92
57847;BME280;43675;50.030;21.952;2023-04-25T01:36:18;97472.20;;;11.26;73.99
57847;BME280;43675;50.030;21.952;2023-04-25T01:38:45;97470.75;;;11.26;73.91
57847;BME280;43675;50.030;21.952;2023-04-25T01:41:12;97469.05;;;11.27;74.05
57847;BME280;43675;50.030;21.952;2023-04-25T01:43:39;97464.27;;;11.27;74.00
57847;BME280;43675;50.030;21.952;2023-04-25T01:46:06;97460.28;;;11.26;74.12
57847;BME280;43675;50.030;21.952;2023-04-25T01:48:33;97460.92;;;11.25;74.17
57847;BME280;43675;50.030;21.952;2023-04-25T01:50:59;97456.45;;;11.24;74.23
57847;BME280;43675;50.030;21.952;2023-04-25T01:53:26;97458.55;;;11.21;74.30
57847;BME280;43675;50.030;21.952;2023-04-25T01:55:53;97454.54;;;11.17;74.42
57847;BME280;43675;50.030;21.952;2023-04-25T01:58:19;97453.58;;;11.14;74.49
57847;BME280;43675;50.030;21.952;2023-04-25T02:00:46;97455.79;;;11.12;74.57
57847;BME280;43675;50.030;21.952;2023-04-25T02:03:13;97453.36;;;11.10;74.42
57847;BME280;43675;50.030;21.952;2023-04-25T02:05:39;97453.64;;;11.09;74.64
57847;BME280;43675;50.030;21.952;2023-04-25T02:08:07;97447.08;;;11.07;74.67
57847;BME280;43675;50.030;21.952;2023-04-25T02:10:35;97443.54;;;11.08;74.67
57847;BME280;43675;50.030;21.952;2023-04-25T02:13:02;97445.79;;;11.07;74.58
57847;BME280;43675;50.030;21.952;2023-04-25T02:15:29;97441.47;;;11.05;74.77
57847;BME280;43675;50.030;21.952;2023-04-25T02:17:55;97442.45;;;11.03;74.88
57847;BME280;43675;50.030;21.952;2023-04-25T02:20:23;97441.80;;;10.99;74.89
57847;BME280;43675;50.030;21.952;2023-04-25T02:22:50;97440.88;;;10.95;75.11
57847;BME280;43675;50.030;21.952;2023-04-25T02:25:18;97440.94;;;10.91;75.07
57847;BME280;43675;50.030;21.952;2023-04-25T02:27:45;97440.14;;;10.88;75.13
57847;BME280;43675;50.030;21.952;2023-04-25T02:30:12;97440.88;;;10.87;75.16
57847;BME280;43675;50.030;21.952;2023-04-25T02:32:39;97438.68;;;10.84;75.28
57847;BME280;43675;50.030;21.952;2023-04-25T02:35:06;97438.22;;;10.81;75.50
57847;BME280;43675;50.030;21.952;2023-04-25T02:37:34;97437.94;;;10.77;75.59
57847;BME280;43675;50.030;21.952;2023-04-25T02:40:01;97435.10;;;10.74;75.52
57847;BME280;43675;50.030;21.952;2023-04-25T02:42:28;97435.70;;;10.71;75.73
57847;BME280;43675;50.030;21.952;2023-04-25T02:44:55;97434.33;;;10.69;75.77
57847;BME280;43675;50.030;21.952;2023-04-25T02:47:21;97436.86;;;10.66;76.04
57847;BME280;43675;50.030;21.952;2023-04-25T02:49:48;97437.05;;;10.65;76.15
57847;BME280;43675;50.030;21.952;2023-04-25T02:52:15;97434.89;;;10.63;76.22
57847;BME280;43675;50.030;21.952;2023-04-25T02:54:41;97439.06;;;10.63;76.32
57847;BME280;43675;50.030;21.952;2023-04-25T02:57:08;97435.19;;;10.63;76.43
57847;BME280;43675;50.030;21.952;2023-04-25T02:59:35;97435.66;;;10.62;76.44
57847;BME280;43675;50.030;21.952;2023-04-25T03:02:01;97434.27;;;10.62;76.55
57847;BME280;43675;50.030;21.952;2023-04-25T03:04:28;97434.69;;;10.61;76.46
57847;BME280;43675;50.030;21.952;2023-04-25T03:06:54;97430.73;;;10.61;76.62
57847;BME280;43675;50.030;21.952;2023-04-25T03:09:21;97430.63;;;10.62;76.66
57847;BME280;43675;50.030;21.952;2023-04-25T03:11:47;97427.38;;;10.63;76.74
57847;BME280;43675;50.030;21.952;2023-04-25T03:14:14;97427.38;;;10.64;76.78
57847;BME280;43675;50.030;21.952;2023-04-25T03:16:40;97422.41;;;10.65;76.78
57847;BME280;43675;50.030;21.952;2023-04-25T03:19:07;97419.84;;;10.66;76.93
57847;BME280;43675;50.030;21.952;2023-04-25T03:21:35;97422.08;;;10.67;76.90
57847;BME280;43675;50.030;21.952;2023-04-25T03:24:03;97421.45;;;10.69;76.88
57847;BME280;43675;50.030;21.952;2023-04-25T03:26:30;97424.38;;;10.71;76.91
57847;BME280;43675;50.030;21.952;2023-04-25T03:28:57;97422.48;;;10.72;77.03
57847;BME280;43675;50.030;21.952;2023-04-25T03:31:23;97422.81;;;10.73;77.13
57847;BME280;43675;50.030;21.952;2023-04-25T03:33:50;97423.80;;;10.75;77.03
57847;BME280;43675;50.030;21.952;2023-04-25T03:36:16;97423.56;;;10.78;77.10
57847;BME280;43675;50.030;21.952;2023-04-25T03:38:43;97422.36;;;10.80;77.10
57847;BME280;43675;50.030;21.952;2023-04-25T03:41:09;97423.15;;;10.82;77.14
57847;BME280;43675;50.030;21.952;2023-04-25T03:43:36;97423.90;;;10.85;77.22
57847;BME280;43675;50.030;21.952;2023-04-25T03:46:02;97422.61;;;10.89;77.29
57847;BME280;43675;50.030;21.952;2023-04-25T03:48:29;97422.23;;;10.93;77.15
57847;BME280;43675;50.030;21.952;2023-04-25T03:50:56;97421.35;;;10.96;77.33
57847;BME280;43675;50.030;21.952;2023-04-25T03:53:22;97422.54;;;11.00;77.24
57847;BME280;43675;50.030;21.952;2023-04-25T03:55:49;97419.90;;;11.03;77.15
57847;BME280;43675;50.030;21.952;2023-04-25T03:58:15;97422.46;;;11.07;77.13
57847;BME280;43675;50.030;21.952;2023-04-25T04:00:42;97420.27;;;11.09;77.04
57847;BME280;43675;50.030;21.952;2023-04-25T04:03:08;97423.20;;;11.12;77.10
57847;BME280;43675;50.030;21.952;2023-04-25T04:05:35;97425.23;;;11.16;77.11
57847;BME280;43675;50.030;21.952;2023-04-25T04:08:01;97425.13;;;11.20;77.21
57847;BME280;43675;50.030;21.952;2023-04-25T04:10:28;97425.41;;;11.25;77.17
57847;BME280;43675;50.030;21.952;2023-04-25T04:12:54;97425.78;;;11.29;77.18
57847;BME280;43675;50.030;21.952;2023-04-25T04:15:21;97425.32;;;11.35;77.14
57847;BME280;43675;50.030;21.952;2023-04-25T04:17:48;97428.30;;;11.41;76.99
57847;BME280;43675;50.030;21.952;2023-04-25T04:20:15;97424.70;;;11.46;76.95
57847;BME280;43675;50.030;21.952;2023-04-25T04:22:41;97426.65;;;11.51;77.01
57847;BME280;43675;50.030;21.952;2023-04-25T04:25:08;97429.76;;;11.55;76.82
57847;BME280;43675;50.030;21.952;2023-04-25T04:27:35;97430.88;;;11.59;76.77
57847;BME280;43675;50.030;21.952;2023-04-25T04:30:02;97428.19;;;11.63;76.75
57847;BME280;43675;50.030;21.952;2023-04-25T04:32:28;97426.15;;;11.68;76.68
57847;BME280;43675;50.030;21.952;2023-04-25T04:34:55;97426.13;;;11.73;76.56
57847;BME280;43675;50.030;21.952;2023-04-25T04:37:21;97426.45;;;11.78;76.52
57847;BME280;43675;50.030;21.952;2023-04-25T04:39:48;97423.90;;;11.81;76.54
57847;BME280;43675;50.030;21.952;2023-04-25T04:42:14;97423.40;;;11.84;76.49
57847;BME280;43675;50.030;21.952;2023-04-25T04:44:41;97425.11;;;11.89;76.41
57847;BME280;43675;50.030;21.952;2023-04-25T04:47:07;97424.94;;;11.92;76.31
57847;BME280;43675;50.030;21.952;2023-04-25T04:49:34;97424.44;;;11.95;76.22
57847;BME280;43675;50.030;21.952;2023-04-25T04:52:00;97421.77;;;11.97;76.20
57847;BME280;43675;50.030;21.952;2023-04-25T04:54:27;97421.03;;;12.00;76.09
57847;BME280;43675;50.030;21.952;2023-04-25T04:56:53;97421.40;;;12.03;76.07
57847;BME280;43675;50.030;21.952;2023-04-25T04:59:20;97420.45;;;12.05;75.96
57847;BME280;43675;50.030;21.952;2023-04-25T05:01:46;97421.44;;;12.08;75.94
57847;BME280;43675;50.030;21.952;2023-04-25T05:04:13;97422.35;;;12.11;75.93
57847;BME280;43675;50.030;21.952;2023-04-25T05:06:39;97422.69;;;12.16;75.83
57847;BME280;43675;50.030;21.952;2023-04-25T05:09:06;97418.80;;;12.18;75.82
57847;BME280;43675;50.030;21.952;2023-04-25T05:11:32;97417.29;;;12.22;75.89
57847;BME280;43675;50.030;21.952;2023-04-25T05:13:59;97416.95;;;12.26;75.78
57847;BME280;43675;50.030;21.952;2023-04-25T05:16:25;97420.84;;;12.30;75.66
57847;BME280;43675;50.030;21.952;2023-04-25T05:18:52;97416.89;;;12.33;75.60
57847;BME280;43675;50.030;21.952;2023-04-25T05:21:18;97417.70;;;12.33;75.56
57847;BME280;43675;50.030;21.952;2023-04-25T05:23:45;97418.08;;;12.33;75.52
57847;BME280;43675;50.030;21.952;2023-04-25T05:26:12;97421.96;;;12.34;75.50
57847;BME280;43675;50.030;21.952;2023-04-25T05:28:39;97418.73;;;12.35;75.41
57847;BME280;43675;50.030;21.952;2023-04-25T05:31:06;97421.75;;;12.36;75.33
57847;BME280;43675;50.030;21.952;2023-04-25T05:33:32;97422.25;;;12.38;75.21
57847;BME280;43675;50.030;21.952;2023-04-25T05:35:59;97422.10;;;12.39;75.16
57847;BME280;43675;50.030;21.952;2023-04-25T05:38:26;97420.34;;;12.40;75.13
57847;BME280;43675;50.030;21.952;2023-04-25T05:40:52;97422.30;;;12.43;75.09
57847;BME280;43675;50.030;21.952;2023-04-25T05:43:19;97420.15;;;12.45;74.92
57847;BME280;43675;50.030;21.952;2023-04-25T05:45:45;97427.39;;;12.46;74.92
57847;BME280;43675;50.030;21.952;2023-04-25T05:48:12;97422.89;;;12.49;74.95
57847;BME280;43675;50.030;21.952;2023-04-25T05:50:38;97424.73;;;12.51;74.82
57847;BME280;43675;50.030;21.952;2023-04-25T05:53:05;97424.92;;;12.53;74.83
57847;BME280;43675;50.030;21.952;2023-04-25T05:55:31;97421.19;;;12.58;74.70
57847;BME280;43675;50.030;21.952;2023-04-25T05:57:58;97420.57;;;12.61;74.60
57847;BME280;43675;50.030;21.952;2023-04-25T06:00:24;97421.61;;;12.65;74.56
57847;BME280;43675;50.030;21.952;2023-04-25T06:02:51;97423.83;;;12.67;74.44
57847;BME280;43675;50.030;21.952;2023-04-25T06:05:17;97423.10;;;12.70;74.26
57847;BME280;43675;50.030;21.952;2023-04-25T06:07:44;97426.86;;;12.74;74.23
57847;BME280;43675;50.030;21.952;2023-04-25T06:10:11;97428.80;;;12.76;74.01
57847;BME280;43675;50.030;21.952;2023-04-25T06:12:37;97428.11;;;12.78;74.12
57847;BME280;43675;50.030;21.952;2023-04-25T06:15:05;97428.02;;;12.81;73.97
57847;BME280;43675;50.030;21.952;2023-04-25T06:17:32;97424.59;;;12.83;73.80
57847;BME280;43675;50.030;21.952;2023-04-25T06:19:59;97426.89;;;12.85;73.71
57847;BME280;43675;50.030;21.952;2023-04-25T06:22:25;97423.75;;;12.87;73.68
57847;BME280;43675;50.030;21.952;2023-04-25T06:24:52;97424.19;;;12.86;73.50
57847;BME280;43675;50.030;21.952;2023-04-25T06:27:18;97425.60;;;12.81;73.41
57847;BME280;43675;50.030;21.952;2023-04-25T06:29:45;97425.46;;;12.75;73.44
57847;BME280;43675;50.030;21.952;2023-04-25T06:32:11;97427.81;;;12.66;73.45
57847;BME280;43675;50.030;21.952;2023-04-25T06:34:38;97428.58;;;12.54;73.44
57847;BME280;43675;50.030;21.952;2023-04-25T06:37:04;97431.50;;;12.43;73.49
57847;BME280;43675;50.030;21.952;2023-04-25T06:39:31;97432.40;;;12.35;73.66
57847;BME280;43675;50.030;21.952;2023-04-25T06:41:57;97436.29;;;12.30;73.74
57847;BME280;43675;50.030;21.952;2023-04-25T06:44:24;97438.30;;;12.27;73.76
57847;BME280;43675;50.030;21.952;2023-04-25T06:46:50;97437.16;;;12.32;73.73
57847;BME280;43675;50.030;21.952;2023-04-25T06:49:17;97439.83;;;12.36;73.71
57847;BME280;43675;50.030;21.952;2023-04-25T06:51:43;97439.73;;;12.37;73.62
57847;BME280;43675;50.030;21.952;2023-04-25T06:54:10;97446.91;;;12.33;73.38
57847;BME280;43675;50.030;21.952;2023-04-25T06:56:37;97446.05;;;12.16;73.42
57847;BME280;43675;50.030;21.952;2023-04-25T06:59:03;97444.36;;;11.99;73.31
57847;BME280;43675;50.030;21.952;2023-04-25T07:01:30;97449.98;;;11.77;73.50
57847;BME280;43675;50.030;21.952;2023-04-25T07:03:56;97456.33;;;11.58;73.73
57847;BME280;43675;50.030;21.952;2023-04-25T07:06:23;97454.05;;;11.39;73.93
57847;BME280;43675;50.030;21.952;2023-04-25T07:08:49;97456.79;;;11.22;74.14
57847;BME280;43675;50.030;21.952;2023-04-25T07:11:16;97456.96;;;11.08;74.25
57847;BME280;43675;50.030;21.952;2023-04-25T07:13:42;97459.21;;;10.96;74.53
57847;BME280;43675;50.030;21.952;2023-04-25T07:16:09;97461.63;;;10.89;74.79
57847;BME280;43675;50.030;21.952;2023-04-25T07:18:35;97462.45;;;10.86;74.89
57847;BME280;43675;50.030;21.952;2023-04-25T07:21:02;97463.45;;;10.82;74.83
57847;BME280;43675;50.030;21.952;2023-04-25T07:23:28;97462.81;;;10.83;75.02
57847;BME280;43675;50.030;21.952;2023-04-25T07:25:55;97462.84;;;10.87;74.81
57847;BME280;43675;50.030;21.952;2023-04-25T07:28:22;97466.10;;;10.86;74.97
57847;BME280;43675;50.030;21.952;2023-04-25T07:30:48;97465.08;;;10.86;75.15
57847;BME280;43675;50.030;21.952;2023-04-25T07:33:15;97462.18;;;10.93;75.07
57847;BME280;43675;50.030;21.952;2023-04-25T07:35:41;97460.55;;;10.96;74.94
57847;BME280;43675;50.030;21.952;2023-04-25T07:38:08;97461.34;;;10.99;74.91
57847;BME280;43675;50.030;21.952;2023-04-25T07:40:34;97467.23;;;10.98;74.74
57847;BME280;43675;50.030;21.952;2023-04-25T07:43:01;97469.54;;;10.93;74.95
57847;BME280;43675;50.030;21.952;2023-04-25T07:45:27;97470.43;;;10.89;74.96
57847;BME280;43675;50.030;21.952;2023-04-25T07:47:54;97476.14;;;10.87;75.08
57847;BME280;43675;50.030;21.952;2023-04-25T07:50:20;97479.19;;;10.79;75.05
57847;BME280;43675;50.030;21.952;2023-04-25T07:52:47;97481.61;;;10.66;75.18
57847;BME280;43675;50.030;21.952;2023-04-25T07:55:14;97484.77;;;10.57;75.40
57847;BME280;43675;50.030;21.952;2023-04-25T07:57:40;97483.61;;;10.44;75.54
57847;BME280;43675;50.030;21.952;2023-04-25T08:00:07;97485.65;;;10.32;75.73
57847;BME280;43675;50.030;21.952;2023-04-25T08:02:34;97494.46;;;10.22;76.01
57847;BME280;43675;50.030;21.952;2023-04-25T08:05:02;97496.70;;;10.11;76.23
57847;BME280;43675;50.030;21.952;2023-04-25T08:07:28;97495.05;;;10.03;76.31
57847;BME280;43675;50.030;21.952;2023-04-25T08:09:55;97505.89;;;9.94;76.64
57847;BME280;43675;50.030;21.952;2023-04-25T08:12:21;97503.14;;;9.83;76.80
57847;BME280;43675;50.030;21.952;2023-04-25T08:14:48;97507.45;;;9.76;77.04
57847;BME280;43675;50.030;21.952;2023-04-25T08:17:14;97509.89;;;9.70;77.08
57847;BME280;43675;50.030;21.952;2023-04-25T08:19:41;97511.95;;;9.64;77.49
57847;BME280;43675;50.030;21.952;2023-04-25T08:22:07;97513.21;;;9.62;77.78
57847;BME280;43675;50.030;21.952;2023-04-25T08:24:34;97517.05;;;9.64;77.87
57847;BME280;43675;50.030;21.952;2023-04-25T08:27:00;97514.81;;;9.62;78.00
57847;BME280;43675;50.030;21.952;2023-04-25T08:29:27;97520.65;;;9.62;77.92
57847;BME280;43675;50.030;21.952;2023-04-25T08:31:53;97522.77;;;9.58;77.96
57847;BME280;43675;50.030;21.952;2023-04-25T08:34:20;97528.09;;;9.54;78.00
57847;BME280;43675;50.030;21.952;2023-04-25T08:36:46;97531.50;;;9.46;78.26
57847;BME280;43675;50.030;21.952;2023-04-25T08:39:13;97537.11;;;9.35;78.37
57847;BME280;43675;50.030;21.952;2023-04-25T08:41:40;97533.45;;;9.25;78.41
57847;BME280;43675;50.030;21.952;2023-04-25T08:44:10;97542.23;;;9.18;78.73
57847;BME280;43675;50.030;21.952;2023-04-25T08:46:40;97542.16;;;9.15;78.79
57847;BME280;43675;50.030;21.952;2023-04-25T08:49:08;97545.14;;;9.12;78.93
57847;BME280;43675;50.030;21.952;2023-04-25T08:51:36;97552.70;;;9.08;78.94
57847;BME280;43675;50.030;21.952;2023-04-25T08:54:10;97555.25;;;9.04;78.90
57847;BME280;43675;50.030;21.952;2023-04-25T08:56:47;97554.21;;;8.95;78.57
57847;BME280;43675;50.030;21.952;2023-04-25T08:59:14;97561.38;;;8.91;79.15
57847;BME280;43675;50.030;21.952;2023-04-25T09:01:40;97561.92;;;8.88;79.10
57847;BME280;43675;50.030;21.952;2023-04-25T09:04:07;97567.21;;;8.84;79.52
57847;BME280;43675;50.030;21.952;2023-04-25T09:06:34;97574.38;;;8.84;79.71
57847;BME280;43675;50.030;21.952;2023-04-25T09:09:03;97569.40;;;8.83;79.58
57847;BME280;43675;50.030;21.952;2023-04-25T09:11:29;97571.85;;;8.85;79.88
57847;BME280;43675;50.030;21.952;2023-04-25T09:14:12;97578.63;;;8.88;79.98
57847;BME280;43675;50.030;21.952;2023-04-25T09:17:02;97577.41;;;8.87;80.06
57847;BME280;43675;50.030;21.952;2023-04-25T09:19:31;97577.96;;;8.88;79.98
57847;BME280;43675;50.030;21.952;2023-04-25T09:22:00;97581.38;;;8.88;80.18
57847;BME280;43675;50.030;21.952;2023-04-25T09:24:36;97583.20;;;8.88;80.23
57847;BME280;43675;50.030;21.952;2023-04-25T09:27:07;97589.30;;;8.90;80.17
57847;BME280;43675;50.030;21.952;2023-04-25T09:29:36;97587.95;;;8.89;80.17
57847;BME280;43675;50.030;21.952;2023-04-25T09:32:18;97590.38;;;8.90;80.39
57847;BME280;43675;50.030;21.952;2023-04-25T09:35:03;97589.29;;;8.91;80.10
57847;BME280;43675;50.030;21.952;2023-04-25T09:37:30;97595.30;;;8.90;80.31
57847;BME280;43675;50.030;21.952;2023-04-25T09:39:59;97587.72;;;8.86;79.67
57847;BME280;43675;50.030;21.952;2023-04-25T09:42:26;97590.16;;;8.83;80.01
57847;BME280;43675;50.030;21.952;2023-04-25T09:44:55;97593.77;;;8.83;79.99
57847;BME280;43675;50.030;21.952;2023-04-25T09:47:25;97591.57;;;8.90;80.35
57847;BME280;43675;50.030;21.952;2023-04-25T09:49:53;97592.55;;;9.08;80.58
57847;BME280;43675;50.030;21.952;2023-04-25T09:52:24;97595.21;;;9.21;80.28
57847;BME280;43675;50.030;21.952;2023-04-25T09:54:51;97593.60;;;9.26;80.08
57847;BME280;43675;50.030;21.952;2023-04-25T09:57:23;97593.23;;;9.31;80.14
57847;BME280;43675;50.030;21.952;2023-04-25T09:59:52;97602.24;;;9.33;80.04
57847;BME280;43675;50.030;21.952;2023-04-25T10:02:23;97601.96;;;9.38;79.87
57847;BME280;43675;50.030;21.952;2023-04-25T10:04:52;97598.94;;;9.39;79.83
57847;BME280;43675;50.030;21.952;2023-04-25T10:07:19;97597.12;;;9.41;80.01
57847;BME280;43675;50.030;21.952;2023-04-25T10:09:50;97605.98;;;9.40;79.63
57847;BME280;43675;50.030;21.952;2023-04-25T10:12:21;97608.89;;;9.33;79.65
57847;BME280;43675;50.030;21.952;2023-04-25T10:14:48;97609.04;;;9.24;79.65
57847;BME280;43675;50.030;21.952;2023-04-25T10:17:15;97609.89;;;9.20;79.69
57847;BME280;43675;50.030;21.952;2023-04-25T10:19:43;97612.74;;;9.22;79.86
57847;BME280;43675;50.030;21.952;2023-04-25T10:22:18;97618.17;;;9.21;79.77
57847;BME280;43675;50.030;21.952;2023-04-25T10:24:47;97616.99;;;9.14;79.67
57847;BME280;43675;50.030;21.952;2023-04-25T10:27:14;97616.08;;;9.10;79.76
57847;BME280;43675;50.030;21.952;2023-04-25T10:29:41;97620.77;;;9.07;79.74
57847;BME280;43675;50.030;21.952;2023-04-25T10:32:07;97621.54;;;9.05;79.93
57847;BME280;43675;50.030;21.952;2023-04-25T10:34:42;97621.92;;;9.06;79.92
57847;BME280;43675;50.030;21.952;2023-04-25T10:37:09;97622.74;;;9.07;80.01
57847;BME280;43675;50.030;21.952;2023-04-25T10:39:41;97617.59;;;9.06;79.81
57847;BME280;43675;50.030;21.952;2023-04-25T10:42:08;97618.92;;;9.05;79.80
57847;BME280;43675;50.030;21.952;2023-04-25T10:44:37;97627.98;;;9.08;79.74
57847;BME280;43675;50.030;21.952;2023-04-25T10:47:06;97625.17;;;9.10;79.84
57847;BME280;43675;50.030;21.952;2023-04-25T10:49:35;97622.27;;;9.09;79.55
57847;BME280;43675;50.030;21.952;2023-04-25T10:52:15;97622.86;;;9.06;79.74
57847;BME280;43675;50.030;21.952;2023-04-25T10:54:52;97627.73;;;9.01;79.62
57847;BME280;43675;50.030;21.952;2023-04-25T10:57:42;97624.21;;;8.95;79.35
57847;BME280;43675;50.030;21.952;2023-04-25T11:00:17;97626.98;;;8.90;79.50
57847;BME280;43675;50.030;21.952;2023-04-25T11:03:02;97631.86;;;8.90;79.48
57847;BME280;43675;50.030;21.952;2023-04-25T11:05:36;97629.42;;;8.93;79.67
57847;BME280;43675;50.030;21.952;2023-04-25T11:08:11;97626.73;;;9.00;79.67
57847;BME280;43675;50.030;21.952;2023-04-25T11:10:39;97631.67;;;9.06;79.39
57847;BME280;43675;50.030;21.952;2023-04-25T11:13:06;97624.69;;;9.05;79.08
57847;BME280;43675;50.030;21.952;2023-04-25T11:15:32;97627.37;;;8.99;79.21
57847;BME280;43675;50.030;21.952;2023-04-25T11:17:59;97632.54;;;8.92;79.19
57847;BME280;43675;50.030;21.952;2023-04-25T11:20:26;97633.33;;;8.87;79.23
57847;BME280;43675;50.030;21.952;2023-04-25T11:22:52;97629.96;;;8.85;79.03
57847;BME280;43675;50.030;21.952;2023-04-25T11:25:19;97634.95;;;8.85;79.03
57847;BME280;43675;50.030;21.952;2023-04-25T11:27:57;97632.10;;;8.85;79.01
57847;BME280;43675;50.030;21.952;2023-04-25T11:30:25;97631.98;;;8.80;78.80
57847;BME280;43675;50.030;21.952;2023-04-25T11:32:52;97629.05;;;8.77;78.65
57847;BME280;43675;50.030;21.952;2023-04-25T11:35:20;97630.58;;;8.75;78.55
57847;BME280;43675;50.030;21.952;2023-04-25T11:37:47;97635.61;;;8.70;78.46
57847;BME280;43675;50.030;21.952;2023-04-25T11:40:13;97631.91;;;8.68;78.45
57847;BME280;43675;50.030;21.952;2023-04-25T11:42:44;97637.94;;;8.67;78.43
57847;BME280;43675;50.030;21.952;2023-04-25T11:45:11;97642.88;;;8.64;78.52
57847;BME280;43675;50.030;21.952;2023-04-25T11:47:38;97639.38;;;8.59;78.66
57847;BME280;43675;50.030;21.952;2023-04-25T11:50:07;97637.77;;;8.54;78.68
57847;BME280;43675;50.030;21.952;2023-04-25T11:52:38;97641.81;;;8.53;78.63
57847;BME280;43675;50.030;21.952;2023-04-25T11:55:07;97640.09;;;8.52;78.52
57847;BME280;43675;50.030;21.952;2023-04-25T11:57:33;97639.33;;;8.55;78.70
57847;BME280;43675;50.030;21.952;2023-04-25T12:00:12;97639.61;;;8.62;78.55
57847;BME280;43675;50.030;21.952;2023-04-25T12:02:43;97637.70;;;8.68;78.44
57847;BME280;43675;50.030;21.952;2023-04-25T12:05:11;97633.20;;;8.75;78.22
57847;BME280;43675;50.030;21.952;2023-04-25T12:07:38;97630.23;;;8.79;77.95
57847;BME280;43675;50.030;21.952;2023-04-25T12:10:13;97633.07;;;8.87;77.98
57847;BME280;43675;50.030;21.952;2023-04-25T12:12:45;97632.27;;;8.96;78.00
57847;BME280;43675;50.030;21.952;2023-04-25T12:15:17;97635.78;;;9.06;77.88
57847;BME280;43675;50.030;21.952;2023-04-25T12:17:48;97633.38;;;9.12;77.47
57847;BME280;43675;50.030;21.952;2023-04-25T12:20:21;97630.09;;;9.14;77.27
57847;BME280;43675;50.030;21.952;2023-04-25T12:22:47;97631.61;;;9.14;76.97
57847;BME280;43675;50.030;21.952;2023-04-25T12:25:40;97635.21;;;9.18;76.91
57847;BME280;43675;50.030;21.952;2023-04-25T12:28:18;97635.33;;;9.13;76.43
57847;BME280;43675;50.030;21.952;2023-04-25T12:31:05;97633.70;;;9.10;76.22
57847;BME280;43675;50.030;21.952;2023-04-25T12:33:34;97634.23;;;9.08;76.25
57847;BME280;43675;50.030;21.952;2023-04-25T12:36:02;97635.64;;;9.12;75.92
57847;BME280;43675;50.030;21.952;2023-04-25T12:38:30;97639.64;;;9.17;76.13
57847;BME280;43675;50.030;21.952;2023-04-25T12:40:58;97639.39;;;9.17;75.99
57847;BME280;43675;50.030;21.952;2023-04-25T12:43:24;97641.39;;;9.16;75.81
57847;BME280;43675;50.030;21.952;2023-04-25T12:45:55;97637.31;;;9.11;75.77
57847;BME280;43675;50.030;21.952;2023-04-25T12:48:23;97639.15;;;9.03;75.74
57847;BME280;43675;50.030;21.952;2023-04-25T12:50:50;97636.89;;;8.96;75.72
57847;BME280;43675;50.030;21.952;2023-04-25T12:53:18;97639.50;;;8.89;75.73
57847;BME280;43675;50.030;21.952;2023-04-25T12:55:46;97637.17;;;8.85;75.90